Time;durP1;ratioP1;P1;durP2;ratioP2;P2;SDS_P1;SDS_P2;PMS_P1;PMS_P2;Temp;Humidity;BMP_temperature;BMP_pressure;BME280_temperature;BME280_humidity;BME280_pressure;Samples;Min_cycle;Max_cycle;Signal;HPM_P1;HPM_P2
2021/11/23 00:00:25;;;;;;;;;18.25;14.25;;;;;7.09;100.00;102520.31;5016756;28;45520;-74
2021/11/23 00:02:51;;;;;;;;;16.75;15.00;;;;;7.12;100.00;102526.63;5015753;28;45412;-74
2021/11/23 00:05:17;;;;;;;;;16.00;14.75;;;;;7.25;100.00;102543.16;4996541;28;45406;-74
2021/11/23 00:07:42;;;;;;;;;16.00;14.75;;;;;7.19;100.00;102529.72;5016102;28;45476;-74
2021/11/23 00:10:09;;;;;;;;;17.50;16.75;;;;;7.21;100.00;102539.41;5016494;28;45673;-74
2021/11/23 00:12:35;;;;;;;;;23.25;17.00;;;;;7.19;100.00;102540.94;5015664;28;45430;-74
2021/11/23 00:15:02;;;;;;;;;19.75;16.50;;;;;7.02;100.00;102513.72;4998401;28;45819;-74
2021/11/23 00:17:27;;;;;;;;;16.00;15.50;;;;;7.16;100.00;102538.09;5017310;28;45390;-75
2021/11/23 00:19:53;;;;;;;;;20.50;16.25;;;;;7.17;100.00;102539.03;5015897;28;45681;-75
2021/11/23 00:22:19;;;;;;;;;15.50;15.25;;;;;7.18;100.00;102540.81;5015188;28;46033;-75
2021/11/23 00:24:45;;;;;;;;;19.75;17.50;;;;;7.18;100.00;102536.56;5016712;28;45393;-74
2021/11/23 00:27:10;;;;;;;;;15.50;15.50;;;;;7.19;100.00;102529.72;5016739;28;45174;-73
2021/11/23 00:29:36;;;;;;;;;21.75;16.00;;;;;7.20;100.00;102532.44;5015902;28;45170;-74
2021/11/23 00:32:02;;;;;;;;;16.50;15.25;;;;;7.10;100.00;102515.28;4997770;28;47812;-74
2021/11/23 00:34:29;;;;;;;;;17.25;15.00;;;;;7.08;100.00;102519.41;5015938;28;45955;-75
2021/11/23 00:36:55;;;;;;;;;21.50;16.25;;;;;7.10;100.00;102514.41;5016234;28;45581;-74
2021/11/23 00:39:20;;;;;;;;;16.00;15.00;;;;;7.10;100.00;102533.31;5016117;28;45636;-73
2021/11/23 00:41:49;;;;;;;;;17.25;15.00;;;;;7.00;100.00;102520.41;5015321;28;46426;-74
2021/11/23 00:44:16;;;;;;;;;16.75;14.00;;;;;7.06;100.00;102532.91;5015711;28;45777;-76
2021/11/23 00:46:42;;;;;;;;;15.50;14.00;;;;;7.00;100.00;102525.56;5015550;28;45234;-80
2021/11/23 00:49:08;;;;;;;;;20.00;18.25;;;;;7.03;100.00;102535.22;5015665;28;45475;-75
2021/11/23 00:51:34;;;;;;;;;16.00;15.25;;;;;7.00;100.00;102530.72;5015204;28;45461;-76
2021/11/23 00:54:00;;;;;;;;;15.75;13.75;;;;;7.01;100.00;102541.94;5015706;28;45452;-75
2021/11/23 00:56:25;;;;;;;;;18.25;15.75;;;;;6.86;100.00;102529.50;5016487;28;45541;-75
2021/11/23 00:58:51;;;;;;;;;21.25;17.75;;;;;6.95;100.00;102539.72;5015557;28;45372;-75
2021/11/23 01:01:16;;;;;;;;;16.50;9.75;;;;;6.79;100.00;102517.78;5015423;28;46100;-75
2021/11/23 01:03:42;;;;;;;;;16.25;16.25;;;;;6.85;100.00;102526.81;4998464;28;45357;-76
2021/11/23 01:06:08;;;;;;;;;16.50;15.75;;;;;6.86;100.00;102528.63;5016135;28;45345;-79
2021/11/23 01:08:38;;;;;;;;;17.25;14.75;;;;;6.88;100.00;102537.34;5015581;28;45437;-75
2021/11/23 01:11:05;;;;;;;;;19.50;16.00;;;;;6.86;100.00;102539.81;5014990;28;45938;-77
2021/11/23 01:13:31;;;;;;;;;21.25;16.50;;;;;6.76;100.00;102525.22;5015010;28;45474;-79
2021/11/23 01:15:56;;;;;;;;;19.00;16.00;;;;;6.79;100.00;102535.78;4998676;28;45361;-77
2021/11/23 01:18:22;;;;;;;;;21.00;17.00;;;;;6.84;100.00;102543.03;5017724;28;45490;-76
2021/11/23 01:20:48;;;;;;;;;17.50;16.00;;;;;6.84;100.00;102532.72;5000285;28;47666;-79
2021/11/23 01:23:13;;;;;;;;;21.25;17.25;;;;;6.81;100.00;102535.91;5018838;28;45458;-76
2021/11/23 01:25:39;;;;;;;;;20.00;16.50;;;;;6.80;100.00;102539.28;5018249;28;45403;-77
2021/11/23 01:28:04;;;;;;;;;20.00;17.50;;;;;6.77;100.00;102539.00;5019023;28;45367;-79
2021/11/23 01:30:30;;;;;;;;;20.25;17.50;;;;;6.73;100.00;102537.84;5018426;28;45816;-78
2021/11/23 01:32:55;;;;;;;;;19.25;15.25;;;;;6.74;100.00;102537.06;5019264;28;45244;-77
2021/11/23 01:35:21;;;;;;;;;16.25;14.00;;;;;6.75;100.00;102533.69;5018743;28;45269;-77
2021/11/23 01:37:47;;;;;;;;;15.50;15.00;;;;;6.70;100.00;102529.84;5018665;28;45617;-77
2021/11/23 01:40:15;;;;;;;;;15.25;14.75;;;;;6.74;100.00;102531.94;5018314;28;45191;-77
2021/11/23 01:42:42;;;;;;;;;19.75;18.50;;;;;6.78;100.00;102543.38;5021576;28;45837;-79
2021/11/23 01:45:08;;;;;;;;;17.25;17.25;;;;;6.73;100.00;102540.41;5022017;28;45416;-77
2021/11/23 01:47:34;;;;;;;;;20.25;17.75;;;;;6.74;100.00;102541.31;5020073;28;45265;-75
2021/11/23 01:50:00;;;;;;;;;19.25;17.75;;;;;6.72;100.00;102538.59;5012984;28;47484;-75
2021/11/23 01:52:26;;;;;;;;;21.25;17.50;;;;;6.70;100.00;102534.97;4997197;28;45448;-75
2021/11/23 01:54:52;;;;;;;;;18.75;16.25;;;;;6.74;100.00;102551.59;4998178;28;45281;-75
2021/11/23 01:57:19;;;;;;;;;19.75;16.50;;;;;6.63;100.00;102530.06;4998512;28;45589;-75
2021/11/23 01:59:45;;;;;;;;;32.50;20.25;;;;;6.71;100.00;102547.09;4997703;28;45956;-75
2021/11/23 02:02:11;;;;;;;;;17.50;17.00;;;;;6.62;100.00;102539.44;5010811;28;45518;-75
2021/11/23 02:04:37;;;;;;;;;16.00;13.75;;;;;6.62;100.00;102552.31;5017806;28;45445;-75
2021/11/23 02:07:02;;;;;;;;;17.50;15.75;;;;;6.61;100.00;102552.19;5017980;28;45577;-76
2021/11/23 02:09:28;;;;;;;;;19.75;16.25;;;;;6.52;100.00;102544.53;5018017;28;45427;-76
2021/11/23 02:11:55;;;;;;;;;20.75;17.75;;;;;6.57;100.00;102552.66;5018286;28;45266;-75
2021/11/23 02:14:22;;;;;;;;;20.25;14.75;;;;;6.55;100.00;102546.47;5017843;28;45248;-75
2021/11/23 02:16:47;;;;;;;;;20.25;19.50;;;;;6.55;100.00;102549.06;5018037;28;45625;-75
2021/11/23 02:19:13;;;;;;;;;20.50;20.50;;;;;6.53;100.00;102546.34;5017772;28;45841;-75
2021/11/23 02:21:39;;;;;;;;;19.00;15.50;;;;;6.54;100.00;102552.38;5017909;28;45962;-76
2021/11/23 02:24:05;;;;;;;;;15.75;14.75;;;;;6.48;100.00;102542.44;5018071;28;45402;-75
2021/11/23 02:26:31;;;;;;;;;16.50;14.25;;;;;6.53;100.00;102540.31;5017914;28;45280;-75
2021/11/23 02:28:56;;;;;;;;;21.25;18.00;;;;;6.45;100.00;102530.22;5017016;28;45923;-76
2021/11/23 02:31:24;;;;;;;;;19.00;15.50;;;;;6.50;100.00;102534.13;5017495;28;45454;-75
2021/11/23 02:33:50;;;;;;;;;24.00;18.50;;;;;6.51;100.00;102537.59;5017402;28;45324;-75
2021/11/23 02:36:16;;;;;;;;;14.50;14.50;;;;;6.43;100.00;102521.47;5017811;28;45562;-75
2021/11/23 02:38:42;;;;;;;;;15.25;15.25;;;;;6.48;100.00;102522.78;5017069;28;45275;-75
2021/11/23 02:41:11;;;;;;;;;18.00;15.00;;;;;6.46;100.00;102526.88;5017415;28;45808;-75
2021/11/23 02:43:38;;;;;;;;;19.25;17.50;;;;;6.49;100.00;102536.53;5017340;28;45363;-79
2021/11/23 02:46:04;;;;;;;;;18.75;15.25;;;;;6.46;100.00;102541.44;5017823;28;45524;-75
2021/11/23 02:48:30;;;;;;;;;21.75;17.75;;;;;6.47;100.00;102532.94;5016659;28;45271;-78
2021/11/23 02:51:07;;;;;;;;;25.00;20.00;;;;;6.41;100.00;102522.09;5017359;28;45221;-76
2021/11/23 02:53:33;;;;;;;;;20.25;19.50;;;;;6.49;100.00;102527.16;5017015;28;45420;-76
2021/11/23 02:56:00;;;;;;;;;18.25;17.50;;;;;6.45;100.00;102514.78;5016957;28;45435;-76
2021/11/23 02:58:27;;;;;;;;;23.25;17.00;;;;;6.46;100.00;102529.47;5000158;28;45408;-75
2021/11/23 03:00:52;;;;;;;;;19.50;17.50;;;;;6.42;100.00;102524.81;5017824;28;45431;-75
2021/11/23 03:03:18;;;;;;;;;20.25;16.50;;;;;6.43;100.00;102529.19;5017319;28;45470;-75
2021/11/23 03:05:44;;;;;;;;;20.00;17.75;;;;;6.44;100.00;102531.00;5017626;28;45518;-75
2021/11/23 03:08:10;;;;;;;;;18.75;16.50;;;;;6.37;100.00;102517.47;5017272;28;46082;-76
2021/11/23 03:10:36;;;;;;;;;17.75;16.00;;;;;6.47;100.00;102527.81;5017795;28;45186;-76
2021/11/23 03:13:05;;;;;;;;;25.00;21.25;;;;;6.44;100.00;102525.84;5018030;28;45316;-75
2021/11/23 03:15:32;;;;;;;;;18.75;18.75;;;;;6.46;100.00;102533.72;4999182;28;45396;-75
2021/11/23 03:17:58;;;;;;;;;21.25;17.25;;;;;6.42;100.00;102522.25;5017387;28;46010;-76
2021/11/23 03:20:25;;;;;;;;;21.75;19.00;;;;;6.41;100.00;102523.00;5017295;28;45344;-77
2021/11/23 03:22:53;;;;;;;;;15.25;13.00;;;;;6.34;100.00;102510.34;5017059;28;45290;-78
2021/11/23 03:25:19;;;;;;;;;26.25;21.75;;;;;6.32;100.00;102509.31;5018232;28;45773;-78
2021/11/23 03:27:45;;;;;;;;;19.25;16.25;;;;;6.35;100.00;102507.94;5016767;28;45938;-75
2021/11/23 03:30:15;;;;;;;;;20.50;18.50;;;;;6.35;100.00;102509.59;5016666;28;45999;-78
2021/11/23 03:32:41;;;;;;;;;23.25;19.75;;;;;6.31;100.00;102507.53;5016588;28;45359;-75
2021/11/23 03:35:08;;;;;;;;;19.25;17.00;;;;;6.31;100.00;102517.81;5018481;28;45376;-76
2021/11/23 03:37:34;;;;;;;;;17.75;17.00;;;;;6.25;100.00;102496.66;5019099;28;45391;-78
2021/11/23 03:40:00;;;;;;;;;24.75;20.00;;;;;6.22;100.00;102501.53;5015509;28;45482;-77
2021/11/23 03:42:26;;;;;;;;;18.25;17.25;;;;;6.21;100.00;102497.19;5016703;28;45268;-77
2021/11/23 03:44:58;;;;;;;;;24.75;21.25;;;;;6.28;100.00;102505.56;5016346;28;45547;-77
2021/11/23 03:47:26;;;;;;;;;18.25;15.50;;;;;6.29;100.00;102499.66;5016833;28;46179;-77
2021/11/23 03:49:51;;;;;;;;;21.00;19.75;;;;;6.31;100.00;102499.81;5016074;28;45326;-76
2021/11/23 03:52:17;;;;;;;;;18.75;14.75;;;;;6.32;100.00;102504.16;5016282;28;45379;-76
2021/11/23 03:54:42;;;;;;;;;20.75;18.00;;;;;6.33;100.00;102500.81;5016150;28;45434;-78
2021/11/23 03:57:09;;;;;;;;;19.75;17.00;;;;;6.30;100.00;102513.44;5016182;28;46112;-77
2021/11/23 03:59:35;;;;;;;;;17.75;16.00;;;;;6.26;100.00;102511.34;5016175;28;45318;-77
2021/11/23 04:02:01;;;;;;;;;21.25;16.00;;;;;6.23;100.00;102498.19;5016202;28;45397;-77
2021/11/23 04:04:27;;;;;;;;;20.00;17.75;;;;;6.25;100.00;102499.25;4999025;28;45528;-77
2021/11/23 04:06:53;;;;;;;;;20.75;19.00;;;;;6.11;100.00;102485.16;5015916;28;45221;-77
2021/11/23 04:09:19;;;;;;;;;15.00;14.25;;;;;6.13;100.00;102499.94;5016700;28;45820;-75
2021/11/23 04:11:44;;;;;;;;;24.50;21.25;;;;;6.15;100.00;102498.41;5016541;28;45452;-75
2021/11/23 04:14:10;;;;;;;;;23.00;17.75;;;;;6.13;100.00;102496.47;5017953;28;45328;-74
2021/11/23 04:16:37;;;;;;;;;20.50;18.75;;;;;5.71;100.00;102434.50;5015451;28;45925;-75
2021/11/23 04:19:03;;;;;;;;;18.00;18.00;;;;;6.05;100.00;102498.34;5015581;28;45975;-76
2021/11/23 04:21:29;;;;;;;;;22.25;19.00;;;;;6.11;100.00;102519.47;5015952;28;45380;-75
2021/11/23 04:23:55;;;;;;;;;24.00;19.00;;;;;6.12;100.00;102510.09;5016655;28;45353;-75
2021/11/23 04:26:20;;;;;;;;;21.75;18.75;;;;;6.12;100.00;102513.56;5015824;28;45263;-76
2021/11/23 04:28:46;;;;;;;;;18.50;18.25;;;;;6.09;100.00;102502.09;5015684;28;45371;-76
2021/11/23 04:31:11;;;;;;;;;20.75;18.00;;;;;6.13;100.00;102509.34;5015975;28;45399;-75
2021/11/23 04:33:37;;;;;;;;;20.00;17.75;;;;;6.11;100.00;102509.19;5015843;28;45232;-74
2021/11/23 04:36:04;;;;;;;;;19.50;18.50;;;;;6.12;100.00;102505.84;5015145;28;45980;-74
2021/11/23 04:38:30;;;;;;;;;23.75;18.25;;;;;6.11;100.00;102510.88;5015587;28;45451;-75
2021/11/23 04:40:56;;;;;;;;;19.25;17.75;;;;;6.06;100.00;102497.59;5016191;28;45466;-75
2021/11/23 04:43:22;;;;;;;;;18.75;18.00;;;;;6.06;100.00;102496.69;5016111;28;45430;-75
2021/11/23 04:45:47;;;;;;;;;15.50;14.50;;;;;6.04;100.00;102496.56;5015371;28;45996;-74
2021/11/23 04:48:13;;;;;;;;;21.75;19.25;;;;;6.04;100.00;102499.13;5015897;28;45510;-75
2021/11/23 04:50:38;;;;;;;;;20.50;19.50;;;;;6.00;100.00;102502.16;5018035;28;45455;-74
2021/11/23 04:53:04;;;;;;;;;16.25;14.50;;;;;6.08;100.00;102514.06;5020172;28;45658;-75
2021/11/23 04:55:30;;;;;;;;;19.50;17.50;;;;;6.03;100.00;102502.44;5019193;28;45621;-75
2021/11/23 04:57:56;;;;;;;;;23.00;18.75;;;;;6.07;100.00;102509.69;5019389;28;45306;-76
2021/11/23 05:00:22;;;;;;;;;18.00;15.00;;;;;6.09;100.00;102509.81;5019146;28;45403;-80
2021/11/23 05:02:48;;;;;;;;;18.00;17.25;;;;;6.11;100.00;102514.31;5019518;28;45244;-75
2021/11/23 05:05:14;;;;;;;;;16.00;14.00;;;;;6.13;100.00;102517.06;5018089;28;46242;-75
2021/11/23 05:07:41;;;;;;;;;20.00;19.25;;;;;6.10;100.00;102514.19;5018552;28;45405;-75
2021/11/23 05:10:09;;;;;;;;;19.50;19.50;;;;;6.11;100.00;102518.59;5019103;28;45378;-76
2021/11/23 05:12:35;;;;;;;;;17.75;14.75;;;;;6.02;100.00;102508.34;5019115;28;45170;-75
2021/11/23 05:15:02;;;;;;;;;19.25;15.75;;;;;6.08;100.00;102519.22;5018737;28;45301;-74
2021/11/23 05:17:28;;;;;;;;;21.25;20.00;;;;;6.09;100.00;102517.53;5019004;28;45294;-75
2021/11/23 05:19:54;;;;;;;;;19.75;16.50;;;;;6.08;100.00;102508.00;5018846;28;45354;-75
2021/11/23 05:22:19;;;;;;;;;15.00;13.25;;;;;6.06;100.00;102514.69;5019202;28;45589;-74
2021/11/23 05:24:45;;;;;;;;;19.75;17.00;;;;;6.09;100.00;102526.16;5018094;28;45380;-76
2021/11/23 05:27:11;;;;;;;;;18.50;16.00;;;;;6.01;100.00;102503.97;5003461;28;45461;-75
2021/11/23 05:29:36;;;;;;;;;19.50;18.75;;;;;6.07;100.00;102519.06;5020684;28;45424;-75
2021/11/23 05:32:02;;;;;;;;;14.75;14.00;;;;;6.07;100.00;102522.56;5019497;28;45568;-76
2021/11/23 05:34:28;;;;;;;;;20.00;17.50;;;;;6.02;100.00;102514.41;5018701;28;45676;-76
2021/11/23 05:36:54;;;;;;;;;20.75;20.50;;;;;6.09;100.00;102530.38;5018634;28;45328;-73
2021/11/23 05:39:20;;;;;;;;;21.50;18.75;;;;;6.10;100.00;102532.19;5018571;28;45242;-77
2021/11/23 05:41:45;;;;;;;;;24.25;17.00;;;;;6.08;100.00;102534.66;5018328;28;45659;-75
2021/11/23 05:44:11;;;;;;;;;16.75;16.50;;;;;6.03;100.00;102529.09;5018050;28;45549;-75
2021/11/23 05:46:39;;;;;;;;;18.25;15.75;;;;;6.04;100.00;102540.25;5018049;28;45432;-77
2021/11/23 05:49:05;;;;;;;;;17.00;15.75;;;;;6.06;100.00;102540.38;5000659;28;45397;-83
2021/11/23 05:51:32;;;;;;;;;20.25;17.25;;;;;6.04;100.00;102542.84;5018037;28;45490;-75
2021/11/23 05:53:57;;;;;;;;;19.75;15.50;;;;;6.02;100.00;102539.22;5017984;28;45646;-76
2021/11/23 05:56:23;;;;;;;;;18.00;15.25;;;;;5.97;100.00;102536.19;5018216;28;45416;-75
2021/11/23 05:58:49;;;;;;;;;18.50;17.50;;;;;5.98;100.00;102532.84;5018083;28;45465;-77
2021/11/23 06:01:15;;;;;;;;;18.00;17.75;;;;;6.02;100.00;102539.22;5018152;28;45459;-78
2021/11/23 06:03:41;;;;;;;;;20.50;20.25;;;;;5.84;100.00;102511.03;5019656;28;46202;-77
2021/11/23 06:06:07;;;;;;;;;21.00;18.25;;;;;5.99;100.00;102541.50;5018978;28;45202;-75
2021/11/23 06:08:33;;;;;;;;;21.25;18.00;;;;;6.01;100.00;102551.19;5017086;28;45241;-75
2021/11/23 06:10:59;;;;;;;;;18.50;17.00;;;;;5.98;100.00;102537.09;5017646;28;45340;-74
2021/11/23 06:13:25;;;;;;;;;18.00;14.50;;;;;6.03;100.00;102546.16;5017341;28;46384;-75
2021/11/23 06:15:51;;;;;;;;;22.00;19.00;;;;;6.03;100.00;102552.22;5016301;28;45469;-77
2021/11/23 06:18:17;;;;;;;;;18.00;18.00;;;;;5.97;100.00;102543.00;5014202;28;45437;-77
2021/11/23 06:20:51;;;;;;;;;27.00;21.25;;;;;5.98;100.00;102542.25;5016746;28;45446;-75
2021/11/23 06:23:18;;;;;;;;;20.75;19.50;;;;;5.97;99.87;102543.91;5014227;28;45812;-78
2021/11/23 06:25:46;;;;;;;;;19.50;18.25;;;;;5.95;100.00;102534.25;5016378;28;45957;-80
2021/11/23 06:28:16;;;;;;;;;20.00;19.50;;;;;5.98;100.00;102548.28;5016711;28;45325;-75
2021/11/23 06:30:43;;;;;;;;;16.25;15.00;;;;;6.00;99.99;102549.38;5016955;28;45480;-78
2021/11/23 06:33:10;;;;;;;;;18.25;18.00;;;;;5.98;100.00;102542.25;5016856;28;45498;-76
2021/11/23 06:35:36;;;;;;;;;17.75;13.75;;;;;6.02;99.50;102554.63;5016360;28;45266;-77
2021/11/23 06:38:03;;;;;;;;;24.50;19.75;;;;;6.02;99.25;102554.63;5016826;28;45245;-75
2021/11/23 06:40:29;;;;;;;;;8.00;7.00;;;;;6.02;98.64;102549.50;5019279;28;45476;-74
2021/11/23 06:42:54;;;;;;;;;18.00;17.75;;;;;5.97;98.71;102543.00;5000752;28;45487;-82
2021/11/23 06:45:20;;;;;;;;;23.75;18.25;;;;;6.01;98.23;102558.88;5017391;28;45731;-74
2021/11/23 06:47:46;;;;;;;;;20.50;18.00;;;;;6.03;98.41;102572.78;5016922;28;45491;-74
2021/11/23 06:50:12;;;;;;;;;25.00;18.50;;;;;6.02;98.39;102572.63;5016863;28;45876;-74
2021/11/23 06:52:38;;;;;;;;;13.75;12.50;;;;;6.05;98.40;102575.50;5016100;28;45523;-73
2021/11/23 06:55:04;;;;;;;;;19.25;16.75;;;;;6.02;98.18;102576.13;5016183;28;45479;-76
2021/11/23 06:57:30;;;;;;;;;22.50;17.75;;;;;5.99;97.72;102570.69;5016162;28;45379;-76
2021/11/23 06:59:55;;;;;;;;;18.75;15.75;;;;;6.04;97.04;102582.31;5016790;28;45341;-76
2021/11/23 07:02:21;;;;;;;;;20.50;18.00;;;;;6.02;97.57;102585.50;5023600;28;46108;-76
2021/11/23 07:04:47;;;;;;;;;21.75;19.50;;;;;6.01;97.65;102587.16;5036792;28;45390;-77
2021/11/23 07:07:13;;;;;;;;;27.50;20.75;;;;;5.99;98.47;102578.41;5023037;28;45382;-78
2021/11/23 07:09:40;;;;;;;;;18.75;18.50;;;;;5.89;97.94;102568.00;5016573;28;45551;-76
2021/11/23 07:12:08;;;;;;;;;18.25;13.25;;;;;5.98;96.99;102579.13;5016154;28;45451;-76
2021/11/23 07:14:34;;;;;;;;;14.25;14.00;;;;;5.93;97.02;102569.19;5015690;28;45407;-76
2021/11/23 07:17:01;;;;;;;;;18.00;15.75;;;;;5.95;96.74;102572.81;5018922;28;45241;-82
2021/11/23 07:19:29;;;;;;;;;18.50;17.00;;;;;5.89;96.25;102573.16;5021750;28;45728;-76
2021/11/23 07:21:54;;;;;;;;;21.75;16.50;;;;;6.02;96.35;102585.50;5017163;28;45388;-82
2021/11/23 07:24:20;;;;;;;;;19.50;16.75;;;;;6.03;95.73;102584.72;5017820;28;45494;-76
2021/11/23 07:26:49;;;;;;;;;18.25;18.00;;;;;5.97;95.83;102576.44;5015805;28;45448;-77
2021/11/23 07:29:15;;;;;;;;;17.75;16.50;;;;;5.99;95.66;102580.06;5016509;28;45373;-79
2021/11/23 07:31:41;;;;;;;;;21.00;17.75;;;;;6.01;95.68;102583.69;5012763;28;46485;-81
2021/11/23 07:34:06;;;;;;;;;17.00;13.25;;;;;6.06;95.12;102597.88;5015994;28;45668;-95
2021/11/23 07:36:32;;;;;;;;;19.00;15.50;;;;;6.00;94.28;102595.66;5016169;28;45430;-78
2021/11/23 07:39:01;;;;;;;;;21.50;21.25;;;;;6.08;94.20;102618.56;5015370;28;45614;-77
2021/11/23 07:41:28;;;;;;;;;19.25;17.25;;;;;6.08;94.58;102618.56;5015811;28;46138;-79
2021/11/23 07:43:55;;;;;;;;;15.75;12.50;;;;;6.08;93.72;102616.94;5017312;28;45491;-77
2021/11/23 07:46:22;;;;;;;;;19.75;15.50;;;;;6.10;93.78;102623.09;5016209;28;45379;-77
2021/11/23 07:48:47;;;;;;;;;16.50;16.50;;;;;6.11;93.54;102627.47;5016735;28;45221;-75
2021/11/23 07:51:13;;;;;;;;;15.50;14.00;;;;;6.13;92.70;102632.78;5015761;28;45560;-75
2021/11/23 07:53:39;;;;;;;;;12.50;12.00;;;;;6.10;92.70;102623.09;5016803;28;45785;-77
2021/11/23 07:56:06;;;;;;;;;17.00;14.50;;;;;6.15;92.44;102629.56;5015451;28;45357;-77
2021/11/23 07:58:31;;;;;;;;;17.00;14.00;;;;;6.17;92.28;102628.06;5015742;28;45523;-75
2021/11/23 08:00:58;;;;;;;;;14.25;11.75;;;;;6.15;91.17;102624.44;5015418;28;46017;-77
2021/11/23 08:03:25;;;;;;;;;14.75;11.25;;;;;6.19;90.18;102629.09;5015269;28;45304;-77
2021/11/23 08:05:51;;;;;;;;;17.50;13.25;;;;;6.21;90.32;102633.50;5013881;28;45440;-75
2021/11/23 08:08:17;;;;;;;;;19.00;15.25;;;;;6.25;90.32;102641.63;5014979;28;45486;-77
2021/11/23 08:10:44;;;;;;;;;14.75;13.00;;;;;6.23;89.24;102632.88;5007740;28;46053;-76
2021/11/23 08:13:10;;;;;;;;;15.25;13.75;;;;;6.29;88.88;102642.81;5012221;28;46187;-75
2021/11/23 08:15:37;;;;;;;;;12.75;12.75;;;;;6.31;88.67;102652.47;5015019;28;45618;-74
2021/11/23 08:18:05;;;;;;;;;14.50;12.50;;;;;6.33;88.19;102652.59;5013857;28;45698;-76
2021/11/23 08:20:31;;;;;;;;;12.00;10.75;;;;;6.34;88.07;102647.63;5013986;28;46386;-74
2021/11/23 08:22:56;;;;;;;;;15.00;11.75;;;;;6.32;87.30;102643.06;5014178;28;45369;-74
2021/11/23 08:25:22;;;;;;;;;13.25;12.25;;;;;6.34;86.62;102641.53;5014360;28;45454;-75
2021/11/23 08:27:49;;;;;;;;;15.75;11.25;;;;;6.42;86.67;102645.75;5015216;28;45333;-75
2021/11/23 08:30:15;;;;;;;;;11.75;11.75;;;;;6.38;86.44;102640.16;5012104;28;47038;-75
2021/11/23 08:32:40;;;;;;;;;11.00;10.75;;;;;6.44;86.30;102649.34;5014161;28;45718;-77
2021/11/23 08:35:06;;;;;;;;;10.50;10.50;;;;;6.49;86.21;102645.53;5014034;28;45495;-73
2021/11/23 08:37:32;;;;;;;;;11.00;9.00;;;;;6.53;84.97;102638.09;5014307;28;45436;-76
2021/11/23 08:39:58;;;;;;;;;12.50;9.75;;;;;6.49;85.18;102632.66;5015459;28;46102;-81
2021/11/23 08:42:27;;;;;;;;;8.25;8.25;;;;;6.57;84.63;102646.25;5014155;28;45673;-90
2021/11/23 08:44:54;;;;;;;;;11.00;11.00;;;;;6.61;83.42;102644.84;5021053;28;45457;-81
2021/11/23 08:47:21;;;;;;;;;12.75;9.00;;;;;6.59;83.91;102641.22;5018152;28;45324;-83
2021/11/23 08:49:48;;;;;;;;;9.00;8.50;;;;;6.69;82.93;102653.25;5015721;28;45505;-77
2021/11/23 08:52:18;;;;;;;;;11.25;10.00;;;;;6.60;83.19;102633.63;4992987;28;45460;-88
2021/11/23 08:54:45;;;;;;;;;12.50;10.75;;;;;6.73;83.23;102650.19;5015334;28;45463;-79
2021/11/23 08:57:11;;;;;;;;;13.75;11.75;;;;;6.75;82.79;102653.81;5015004;28;45454;-77
2021/11/23 08:59:40;;;;;;;;;12.50;11.25;;;;;6.79;83.01;102653.31;5014226;28;46208;-75
2021/11/23 09:02:06;;;;;;;;;10.50;9.75;;;;;6.79;82.53;102643.91;5015201;28;45792;-79
2021/11/23 09:04:36;;;;;;;;;14.50;13.75;;;;;6.75;82.97;102631.53;5018413;28;45491;-84
2021/11/23 09:07:04;;;;;;;;;14.75;9.25;;;;;6.83;81.40;102642.50;5018121;28;45447;-78
2021/11/23 09:09:34;;;;;;;;;12.75;9.50;;;;;6.87;80.95;102646.25;5015272;28;46159;-79
2021/11/23 09:12:03;;;;;;;;;8.50;8.50;;;;;6.86;80.87;102642.78;5013715;28;45391;-80
2021/11/23 09:14:34;;;;;;;;;9.00;7.75;;;;;6.90;79.74;102651.69;5014447;28;45458;-81
2021/11/23 09:17:03;;;;;;;;;9.00;7.00;;;;;6.87;79.79;102642.03;5015513;28;45550;-85
2021/11/23 09:19:29;;;;;;;;;7.25;7.25;;;;;6.81;80.00;102624.38;5018571;28;46619;-82
2021/11/23 09:21:55;;;;;;;;;7.75;7.50;;;;;6.89;79.09;102634.44;5015611;28;45396;-83
2021/11/23 09:24:21;;;;;;;;;9.00;8.00;;;;;7.05;78.30;102654.72;5017468;28;45424;-80
2021/11/23 09:26:48;;;;;;;;;5.75;5.00;;;;;7.06;78.07;102657.47;5019375;28;45222;-81
2021/11/23 09:29:14;;;;;;;;;13.00;8.25;;;;;7.09;78.33;102665.44;5016383;28;45337;-77
2021/11/23 09:31:42;;;;;;;;;7.50;6.75;;;;;7.13;77.94;102658.88;5014520;28;46026;-76
2021/11/23 09:34:07;;;;;;;;;9.00;7.50;;;;;7.10;77.01;102650.91;5013702;28;45372;-77
2021/11/23 09:36:33;;;;;;;;;5.50;4.75;;;;;7.14;76.48;102650.38;5014257;28;45447;-77
2021/11/23 09:38:59;;;;;;;;;7.00;7.00;;;;;7.21;76.84;102662.16;5016464;28;45447;-78
2021/11/23 09:41:26;;;;;;;;;9.25;7.00;;;;;7.24;75.95;102671.03;5018385;28;45338;-77
2021/11/23 09:43:51;;;;;;;;;6.00;6.00;;;;;7.23;76.72;102658.03;5018830;28;45563;-75
2021/11/23 09:46:17;;;;;;;;;10.50;8.00;;;;;7.31;75.54;102662.19;5016419;28;45601;-76
2021/11/23 09:48:45;;;;;;;;;9.00;7.00;;;;;7.31;75.00;102662.19;5017012;28;45965;-76
2021/11/23 09:51:17;;;;;;;;;4.00;4.00;;;;;7.35;75.05;102664.28;5016166;28;46122;-74
2021/11/23 09:53:43;;;;;;;;;4.50;4.25;;;;;7.39;74.63;102668.00;5015301;28;45389;-76
2021/11/23 09:56:11;;;;;;;;;6.25;4.50;;;;;7.42;74.44;102668.28;5015516;28;45827;-72
2021/11/23 09:58:36;;;;;;;;;4.00;3.50;;;;;7.46;73.89;102669.47;4997242;28;46894;-75
2021/11/23 10:01:08;;;;;;;;;7.75;7.25;;;;;7.49;75.16;102664.59;5016425;28;45502;-73
2021/11/23 10:03:35;;;;;;;;;8.75;6.75;;;;;7.61;75.10;102662.16;5018113;28;45401;-73
2021/11/23 10:06:26;;;;;;;;;4.00;4.00;;;;;7.62;73.53;102653.66;5018765;28;45515;-74
2021/11/23 10:08:55;;;;;;;;;7.75;5.00;;;;;7.65;72.73;102654.81;4993225;28;46348;-74
2021/11/23 10:11:26;;;;;;;;;8.75;5.25;;;;;7.69;72.88;102658.56;4997932;28;45855;-72
2021/11/23 10:13:55;;;;;;;;;5.75;4.00;;;;;7.72;72.81;102644.25;4997776;28;45266;-74
2021/11/23 10:16:22;;;;;;;;;4.50;3.25;;;;;7.73;71.32;102646.06;4997962;28;45507;-74
2021/11/23 10:18:50;;;;;;;;;3.75;3.00;;;;;7.77;70.64;102642.09;4997633;28;45889;-73
2021/11/23 10:21:19;;;;;;;;;5.75;5.50;;;;;7.78;70.51;102638.72;4998582;28;45877;-74
2021/11/23 10:23:49;;;;;;;;;3.50;3.50;;;;;7.83;71.31;102646.88;4997565;28;45290;-74
2021/11/23 10:26:26;;;;;;;;;2.25;2.25;;;;;7.84;70.05;102630.59;4997751;28;45615;-72
2021/11/23 10:28:55;;;;;;;;;3.00;3.00;;;;;7.91;70.61;102640.69;5012210;28;47817;-73
2021/11/23 10:31:28;;;;;;;;;4.75;4.00;;;;;7.92;68.90;102632.19;4997581;28;45993;-74
2021/11/23 10:34:10;;;;;;;;;5.00;3.00;;;;;7.95;68.08;102640.16;4980083;28;45332;-75
2021/11/23 10:36:43;;;;;;;;;4.00;3.75;;;;;7.97;68.96;102632.56;5001912;28;45409;-76
2021/11/23 10:39:18;;;;;;;;;4.00;3.00;;;;;7.98;67.94;102635.28;5016127;28;46137;-75
2021/11/23 10:41:51;;;;;;;;;2.75;2.50;;;;;7.96;68.15;102623.91;5001976;28;45475;-76
2021/11/23 10:44:29;;;;;;;;;4.50;4.25;;;;;8.04;68.55;102635.78;4999857;28;45475;-74
2021/11/23 10:47:00;;;;;;;;;2.75;2.75;;;;;8.08;68.14;102629.22;4999260;28;45353;-74
2021/11/23 10:49:43;;;;;;;;;3.00;3.00;;;;;8.08;68.39;102618.00;5015954;28;45413;-75
2021/11/23 10:52:27;;;;;;;;;3.00;3.00;;;;;8.15;68.66;102620.34;5016810;28;45218;-76
2021/11/23 10:54:53;;;;;;;;;2.50;2.50;;;;;8.19;68.34;102617.22;5015036;28;45400;-75
2021/11/23 10:57:21;;;;;;;;;2.00;1.75;;;;;8.14;68.91;102598.78;5017840;28;45201;-76
2021/11/23 10:59:46;;;;;;;;;3.00;3.00;;;;;8.25;69.06;102611.66;5019030;28;46082;-74
2021/11/23 11:02:13;;;;;;;;;2.25;2.00;;;;;8.17;67.92;102596.47;5018608;28;45466;-75
2021/11/23 11:04:41;;;;;;;;;2.50;1.00;;;;;8.28;68.24;102605.06;5016850;28;45397;-77
2021/11/23 11:07:07;;;;;;;;;3.50;3.50;;;;;8.32;68.57;102601.97;5016986;28;45376;-74
2021/11/23 11:09:34;;;;;;;;;4.75;3.50;;;;;8.34;69.33;102603.03;5016137;28;45447;-76
2021/11/23 11:12:01;;;;;;;;;2.75;2.00;;;;;8.27;69.41;102584.31;5011839;28;45573;-75
2021/11/23 11:14:31;;;;;;;;;3.75;3.00;;;;;8.40;69.39;102599.13;5016779;28;45294;-77